sensor_id;sensor_type;location;lat;lon;timestamp;P1;durP1;ratioP1;P2;durP2;ratioP2
5245;SDS011;54412;51.206;6.888;2023-04-25T00:01:17;8.40;;;4.40;;
5245;SDS011;54412;51.206;6.888;2023-04-25T00:03:43;10.03;;;4.20;;
5245;SDS011;54412;51.206;6.888;2023-04-25T00:06:10;12.63;;;4.17;;
5245;SDS011;54412;51.206;6.888;2023-04-25T00:08:37;9.60;;;3.80;;
5245;SDS011;54412;51.206;6.888;2023-04-25T00:11:03;9.07;;;4.03;;
5245;SDS011;54412;51.206;6.888;2023-04-25T00:13:29;11.30;;;4.10;;
5245;SDS011;54412;51.206;6.888;2023-04-25T00:15:55;13.93;;;4.40;;
5245;SDS011;54412;51.206;6.888;2023-04-25T00:18:24;15.63;;;4.40;;
5245;SDS011;54412;51.206;6.888;2023-04-25T00:20:53;8.90;;;3.63;;
5245;SDS011;54412;51.206;6.888;2023-04-25T00:23:20;11.50;;;3.60;;
5245;SDS011;54412;51.206;6.888;2023-04-25T00:25:47;10.07;;;3.77;;
5245;SDS011;54412;51.206;6.888;2023-04-25T00:28:15;13.27;;;4.23;;
5245;SDS011;54412;51.206;6.888;2023-04-25T00:30:41;19.00;;;5.43;;
5245;SDS011;54412;51.206;6.888;2023-04-25T00:33:08;10.43;;;3.77;;
5245;SDS011;54412;51.206;6.888;2023-04-25T00:35:35;14.17;;;5.20;;
5245;SDS011;54412;51.206;6.888;2023-04-25T00:38:01;16.83;;;4.53;;
5245;SDS011;54412;51.206;6.888;2023-04-25T00:40:27;15.80;;;5.37;;
5245;SDS011;54412;51.206;6.888;2023-04-25T00:42:53;8.07;;;4.00;;
5245;SDS011;54412;51.206;6.888;2023-04-25T00:45:20;17.00;;;5.00;;
5245;SDS011;54412;51.206;6.888;2023-04-25T00:47:46;16.40;;;4.73;;
5245;SDS011;54412;51.206;6.888;2023-04-25T00:50:14;21.20;;;5.17;;
5245;SDS011;54412;51.206;6.888;2023-04-25T00:52:42;13.33;;;4.47;;
5245;SDS011;54412;51.206;6.888;2023-04-25T00:55:10;15.03;;;5.03;;
5245;SDS011;54412;51.206;6.888;2023-04-25T00:57:37;11.40;;;4.50;;
5245;SDS011;54412;51.206;6.888;2023-04-25T01:00:04;10.47;;;4.40;;
5245;SDS011;54412;51.206;6.888;2023-04-25T01:02:32;10.13;;;4.00;;
5245;SDS011;54412;51.206;6.888;2023-04-25T01:05:00;11.27;;;3.97;;
5245;SDS011;54412;51.206;6.888;2023-04-25T01:07:26;9.50;;;4.93;;
5245;SDS011;54412;51.206;6.888;2023-04-25T01:09:52;7.23;;;4.40;;
5245;SDS011;54412;51.206;6.888;2023-04-25T01:12:17;12.40;;;4.60;;
5245;SDS011;54412;51.206;6.888;2023-04-25T01:14:44;13.53;;;4.10;;
5245;SDS011;54412;51.206;6.888;2023-04-25T01:17:10;20.57;;;5.70;;
5245;SDS011;54412;51.206;6.888;2023-04-25T01:19:36;13.97;;;4.70;;
5245;SDS011;54412;51.206;6.888;2023-04-25T01:22:02;9.73;;;3.83;;
5245;SDS011;54412;51.206;6.888;2023-04-25T01:24:28;8.57;;;3.57;;
5245;SDS011;54412;51.206;6.888;2023-04-25T01:26:56;8.23;;;3.03;;
5245;SDS011;54412;51.206;6.888;2023-04-25T01:29:25;15.13;;;3.77;;
5245;SDS011;54412;51.206;6.888;2023-04-25T01:31:52;11.27;;;4.17;;
5245;SDS011;54412;51.206;6.888;2023-04-25T01:34:19;14.40;;;4.40;;
5245;SDS011;54412;51.206;6.888;2023-04-25T01:36:45;11.30;;;3.97;;
5245;SDS011;54412;51.206;6.888;2023-04-25T01:39:15;9.07;;;3.80;;
5245;SDS011;54412;51.206;6.888;2023-04-25T01:41:42;12.50;;;4.30;;
5245;SDS011;54412;51.206;6.888;2023-04-25T01:44:08;11.60;;;3.90;;
5245;SDS011;54412;51.206;6.888;2023-04-25T01:46:34;10.90;;;3.53;;
5245;SDS011;54412;51.206;6.888;2023-04-25T01:49:00;8.60;;;4.20;;
5245;SDS011;54412;51.206;6.888;2023-04-25T01:51:27;8.17;;;3.50;;
5245;SDS011;54412;51.206;6.888;2023-04-25T01:53:53;7.20;;;3.53;;
5245;SDS011;54412;51.206;6.888;2023-04-25T01:56:20;7.63;;;3.70;;
5245;SDS011;54412;51.206;6.888;2023-04-25T01:58:46;11.43;;;3.87;;
5245;SDS011;54412;51.206;6.888;2023-04-25T02:01:11;11.90;;;4.17;;
5245;SDS011;54412;51.206;6.888;2023-04-25T02:03:37;8.77;;;3.47;;
5245;SDS011;54412;51.206;6.888;2023-04-25T02:06:03;7.93;;;4.03;;
5245;SDS011;54412;51.206;6.888;2023-04-25T02:08:29;11.50;;;4.47;;
5245;SDS011;54412;51.206;6.888;2023-04-25T02:10:56;10.17;;;3.90;;
5245;SDS011;54412;51.206;6.888;2023-04-25T02:13:22;7.83;;;3.20;;
5245;SDS011;54412;51.206;6.888;2023-04-25T02:15:48;12.93;;;4.10;;
5245;SDS011;54412;51.206;6.888;2023-04-25T02:18:13;7.80;;;4.27;;
5245;SDS011;54412;51.206;6.888;2023-04-25T02:20:41;13.40;;;4.83;;
5245;SDS011;54412;51.206;6.888;2023-04-25T02:23:08;14.03;;;3.53;;
5245;SDS011;54412;51.206;6.888;2023-04-25T02:25:33;8.90;;;3.50;;
5245;SDS011;54412;51.206;6.888;2023-04-25T02:27:59;8.00;;;4.23;;
5245;SDS011;54412;51.206;6.888;2023-04-25T02:30:25;4.37;;;3.20;;
5245;SDS011;54412;51.206;6.888;2023-04-25T02:32:51;7.00;;;3.57;;
5245;SDS011;54412;51.206;6.888;2023-04-25T02:35:17;10.33;;;4.20;;
5245;SDS011;54412;51.206;6.888;2023-04-25T02:37:42;12.37;;;3.80;;
5245;SDS011;54412;51.206;6.888;2023-04-25T02:40:09;15.30;;;3.80;;
5245;SDS011;54412;51.206;6.888;2023-04-25T02:42:35;7.83;;;3.40;;
5245;SDS011;54412;51.206;6.888;2023-04-25T02:45:00;9.07;;;3.07;;
5245;SDS011;54412;51.206;6.888;2023-04-25T02:47:27;10.23;;;3.23;;
5245;SDS011;54412;51.206;6.888;2023-04-25T02:49:53;12.07;;;4.17;;
5245;SDS011;54412;51.206;6.888;2023-04-25T02:52:19;6.57;;;2.80;;
5245;SDS011;54412;51.206;6.888;2023-04-25T02:54:46;8.73;;;2.97;;
5245;SDS011;54412;51.206;6.888;2023-04-25T02:57:11;10.20;;;3.03;;
5245;SDS011;54412;51.206;6.888;2023-04-25T02:59:37;7.80;;;2.90;;
5245;SDS011;54412;51.206;6.888;2023-04-25T03:02:03;9.23;;;2.60;;
5245;SDS011;54412;51.206;6.888;2023-04-25T03:04:28;5.77;;;2.50;;
5245;SDS011;54412;51.206;6.888;2023-04-25T03:06:54;8.00;;;2.97;;
5245;SDS011;54412;51.206;6.888;2023-04-25T03:09:20;11.90;;;2.87;;
5245;SDS011;54412;51.206;6.888;2023-04-25T03:11:46;10.57;;;2.73;;
5245;SDS011;54412;51.206;6.888;2023-04-25T03:14:12;10.40;;;3.10;;
5245;SDS011;54412;51.206;6.888;2023-04-25T03:16:38;6.20;;;3.30;;
5245;SDS011;54412;51.206;6.888;2023-04-25T03:19:04;12.63;;;3.90;;
5245;SDS011;54412;51.206;6.888;2023-04-25T03:21:34;8.23;;;3.47;;
5245;SDS011;54412;51.206;6.888;2023-04-25T03:24:01;12.50;;;4.13;;
5245;SDS011;54412;51.206;6.888;2023-04-25T03:26:29;9.17;;;4.20;;
5245;SDS011;54412;51.206;6.888;2023-04-25T03:28:55;10.67;;;4.03;;
5245;SDS011;54412;51.206;6.888;2023-04-25T03:31:21;12.60;;;4.00;;
5245;SDS011;54412;51.206;6.888;2023-04-25T03:33:47;10.00;;;3.93;;
5245;SDS011;54412;51.206;6.888;2023-04-25T03:36:13;15.10;;;4.00;;
5245;SDS011;54412;51.206;6.888;2023-04-25T03:38:38;10.53;;;4.37;;
5245;SDS011;54412;51.206;6.888;2023-04-25T03:41:06;10.57;;;3.40;;
5245;SDS011;54412;51.206;6.888;2023-04-25T03:43:32;12.27;;;3.90;;
5245;SDS011;54412;51.206;6.888;2023-04-25T03:45:57;13.30;;;4.90;;
5245;SDS011;54412;51.206;6.888;2023-04-25T03:48:23;10.00;;;4.90;;
5245;SDS011;54412;51.206;6.888;2023-04-25T03:50:51;10.37;;;4.73;;
5245;SDS011;54412;51.206;6.888;2023-04-25T03:53:17;12.80;;;4.60;;
5245;SDS011;54412;51.206;6.888;2023-04-25T03:55:43;10.03;;;4.00;;
5245;SDS011;54412;51.206;6.888;2023-04-25T03:58:08;15.63;;;4.50;;
5245;SDS011;54412;51.206;6.888;2023-04-25T04:00:35;8.80;;;4.97;;
5245;SDS011;54412;51.206;6.888;2023-04-25T04:03:01;10.03;;;4.70;;
5245;SDS011;54412;51.206;6.888;2023-04-25T04:05:27;12.27;;;5.67;;
5245;SDS011;54412;51.206;6.888;2023-04-25T04:07:53;12.23;;;4.90;;
5245;SDS011;54412;51.206;6.888;2023-04-25T04:10:20;10.97;;;4.63;;
5245;SDS011;54412;51.206;6.888;2023-04-25T04:12:46;10.27;;;4.33;;
5245;SDS011;54412;51.206;6.888;2023-04-25T04:15:11;17.17;;;5.33;;
5245;SDS011;54412;51.206;6.888;2023-04-25T04:17:37;15.40;;;5.97;;
5245;SDS011;54412;51.206;6.888;2023-04-25T04:20:03;12.00;;;4.77;;
5245;SDS011;54412;51.206;6.888;2023-04-25T04:22:31;11.43;;;4.63;;
5245;SDS011;54412;51.206;6.888;2023-04-25T04:24:57;16.57;;;5.13;;
5245;SDS011;54412;51.206;6.888;2023-04-25T04:27:22;11.90;;;4.53;;
5245;SDS011;54412;51.206;6.888;2023-04-25T04:29:48;23.07;;;6.13;;
5245;SDS011;54412;51.206;6.888;2023-04-25T04:32:17;10.23;;;4.67;;
5245;SDS011;54412;51.206;6.888;2023-04-25T04:34:43;15.27;;;5.50;;
5245;SDS011;54412;51.206;6.888;2023-04-25T04:37:09;18.37;;;6.40;;
5245;SDS011;54412;51.206;6.888;2023-04-25T04:39:35;15.63;;;5.80;;
5245;SDS011;54412;51.206;6.888;2023-04-25T04:42:02;13.97;;;5.93;;
5245;SDS011;54412;51.206;6.888;2023-04-25T04:44:29;14.30;;;4.43;;
5245;SDS011;54412;51.206;6.888;2023-04-25T04:46:57;18.80;;;5.77;;
5245;SDS011;54412;51.206;6.888;2023-04-25T04:49:24;15.63;;;5.47;;
5245;SDS011;54412;51.206;6.888;2023-04-25T04:51:50;11.53;;;5.30;;
5245;SDS011;54412;51.206;6.888;2023-04-25T04:54:15;13.17;;;4.90;;
5245;SDS011;54412;51.206;6.888;2023-04-25T04:56:41;16.33;;;7.10;;
5245;SDS011;54412;51.206;6.888;2023-04-25T04:59:07;15.30;;;5.57;;
5245;SDS011;54412;51.206;6.888;2023-04-25T05:01:33;17.10;;;5.50;;
5245;SDS011;54412;51.206;6.888;2023-04-25T05:04:02;16.57;;;4.93;;
5245;SDS011;54412;51.206;6.888;2023-04-25T05:06:28;18.13;;;5.53;;
5245;SDS011;54412;51.206;6.888;2023-04-25T05:08:54;13.10;;;5.47;;
5245;SDS011;54412;51.206;6.888;2023-04-25T05:11:21;14.20;;;5.90;;
5245;SDS011;54412;51.206;6.888;2023-04-25T05:13:49;11.93;;;5.13;;
5245;SDS011;54412;51.206;6.888;2023-04-25T05:16:19;25.47;;;5.93;;
5245;SDS011;54412;51.206;6.888;2023-04-25T05:18:45;18.10;;;5.13;;
5245;SDS011;54412;51.206;6.888;2023-04-25T05:21:12;14.00;;;4.80;;
5245;SDS011;54412;51.206;6.888;2023-04-25T05:23:38;13.57;;;5.27;;
5245;SDS011;54412;51.206;6.888;2023-04-25T05:26:04;15.13;;;4.90;;
5245;SDS011;54412;51.206;6.888;2023-04-25T05:28:30;25.90;;;5.97;;
5245;SDS011;54412;51.206;6.888;2023-04-25T05:30:56;27.83;;;6.50;;
5245;SDS011;54412;51.206;6.888;2023-04-25T05:33:21;22.47;;;6.00;;
5245;SDS011;54412;51.206;6.888;2023-04-25T05:35:47;23.80;;;5.27;;
5245;SDS011;54412;51.206;6.888;2023-04-25T05:38:13;19.77;;;5.90;;
5245;SDS011;54412;51.206;6.888;2023-04-25T05:40:39;12.77;;;5.60;;
5245;SDS011;54412;51.206;6.888;2023-04-25T05:43:05;13.97;;;5.30;;
5245;SDS011;54412;51.206;6.888;2023-04-25T05:45:32;14.27;;;5.17;;
5245;SDS011;54412;51.206;6.888;2023-04-25T05:47:57;20.47;;;6.70;;
5245;SDS011;54412;51.206;6.888;2023-04-25T05:50:23;18.83;;;5.97;;
5245;SDS011;54412;51.206;6.888;2023-04-25T05:52:49;17.53;;;5.40;;
5245;SDS011;54412;51.206;6.888;2023-04-25T05:55:15;15.37;;;5.63;;
5245;SDS011;54412;51.206;6.888;2023-04-25T05:57:41;17.03;;;5.87;;
5245;SDS011;54412;51.206;6.888;2023-04-25T06:00:10;22.00;;;6.07;;
5245;SDS011;54412;51.206;6.888;2023-04-25T06:02:38;14.33;;;5.43;;
5245;SDS011;54412;51.206;6.888;2023-04-25T06:05:03;18.13;;;6.03;;
5245;SDS011;54412;51.206;6.888;2023-04-25T06:07:30;18.00;;;5.90;;
5245;SDS011;54412;51.206;6.888;2023-04-25T06:09:55;20.33;;;5.50;;
5245;SDS011;54412;51.206;6.888;2023-04-25T06:12:21;20.20;;;5.50;;
5245;SDS011;54412;51.206;6.888;2023-04-25T06:14:47;24.00;;;6.73;;
5245;SDS011;54412;51.206;6.888;2023-04-25T06:17:13;27.47;;;5.60;;
5245;SDS011;54412;51.206;6.888;2023-04-25T06:19:39;18.83;;;7.50;;
5245;SDS011;54412;51.206;6.888;2023-04-25T06:22:04;19.57;;;6.80;;
5245;SDS011;54412;51.206;6.888;2023-04-25T06:24:31;21.97;;;6.60;;
5245;SDS011;54412;51.206;6.888;2023-04-25T06:26:57;23.30;;;6.70;;
5245;SDS011;54412;51.206;6.888;2023-04-25T06:29:23;18.77;;;6.47;;
5245;SDS011;54412;51.206;6.888;2023-04-25T06:31:48;13.70;;;5.63;;
5245;SDS011;54412;51.206;6.888;2023-04-25T06:34:14;15.70;;;6.57;;
5245;SDS011;54412;51.206;6.888;2023-04-25T06:36:40;21.53;;;6.50;;
5245;SDS011;54412;51.206;6.888;2023-04-25T06:39:06;27.50;;;6.30;;
5245;SDS011;54412;51.206;6.888;2023-04-25T06:41:32;17.17;;;5.77;;
5245;SDS011;54412;51.206;6.888;2023-04-25T06:43:58;16.00;;;5.10;;
5245;SDS011;54412;51.206;6.888;2023-04-25T06:46:23;16.23;;;5.50;;
5245;SDS011;54412;51.206;6.888;2023-04-25T06:48:49;25.60;;;5.23;;
5245;SDS011;54412;51.206;6.888;2023-04-25T06:51:15;14.83;;;4.77;;
5245;SDS011;54412;51.206;6.888;2023-04-25T06:53:41;25.53;;;5.00;;
5245;SDS011;54412;51.206;6.888;2023-04-25T06:56:07;16.90;;;5.23;;
5245;SDS011;54412;51.206;6.888;2023-04-25T06:58:32;17.90;;;5.23;;
5245;SDS011;54412;51.206;6.888;2023-04-25T07:00:58;13.73;;;4.77;;
5245;SDS011;54412;51.206;6.888;2023-04-25T07:03:23;15.73;;;4.93;;
5245;SDS011;54412;51.206;6.888;2023-04-25T07:05:49;16.57;;;4.67;;
5245;SDS011;54412;51.206;6.888;2023-04-25T07:08:15;14.73;;;4.37;;
5245;SDS011;54412;51.206;6.888;2023-04-25T07:10:42;12.90;;;4.30;;
5245;SDS011;54412;51.206;6.888;2023-04-25T07:13:07;19.63;;;5.13;;
5245;SDS011;54412;51.206;6.888;2023-04-25T07:15:33;11.83;;;4.30;;
5245;SDS011;54412;51.206;6.888;2023-04-25T07:17:59;19.13;;;4.23;;
5245;SDS011;54412;51.206;6.888;2023-04-25T07:20:25;27.83;;;5.60;;
5245;SDS011;54412;51.206;6.888;2023-04-25T07:22:52;12.50;;;3.83;;
5245;SDS011;54412;51.206;6.888;2023-04-25T07:25:18;9.97;;;3.73;;
5245;SDS011;54412;51.206;6.888;2023-04-25T07:27:44;9.73;;;2.97;;
5245;SDS011;54412;51.206;6.888;2023-04-25T07:30:10;14.80;;;4.00;;
5245;SDS011;54412;51.206;6.888;2023-04-25T07:32:37;11.77;;;3.70;;
5245;SDS011;54412;51.206;6.888;2023-04-25T07:35:03;16.17;;;3.27;;
5245;SDS011;54412;51.206;6.888;2023-04-25T07:37:29;22.30;;;5.30;;
5245;SDS011;54412;51.206;6.888;2023-04-25T07:39:55;25.13;;;5.80;;
5245;SDS011;54412;51.206;6.888;2023-04-25T07:42:21;19.20;;;6.60;;
5245;SDS011;54412;51.206;6.888;2023-04-25T07:44:46;16.23;;;4.57;;
5245;SDS011;54412;51.206;6.888;2023-04-25T07:47:12;15.00;;;5.30;;
5245;SDS011;54412;51.206;6.888;2023-04-25T07:49:38;15.23;;;5.67;;
5245;SDS011;54412;51.206;6.888;2023-04-25T07:52:05;14.87;;;4.73;;
5245;SDS011;54412;51.206;6.888;2023-04-25T07:54:31;14.77;;;5.07;;
5245;SDS011;54412;51.206;6.888;2023-04-25T07:56:57;15.90;;;5.53;;
5245;SDS011;54412;51.206;6.888;2023-04-25T07:59:23;23.20;;;5.37;;
5245;SDS011;54412;51.206;6.888;2023-04-25T08:01:49;17.70;;;4.47;;
5245;SDS011;54412;51.206;6.888;2023-04-25T08:04:15;8.60;;;4.70;;
5245;SDS011;54412;51.206;6.888;2023-04-25T08:06:41;15.13;;;4.70;;
5245;SDS011;54412;51.206;6.888;2023-04-25T08:09:07;15.43;;;4.30;;
5245;SDS011;54412;51.206;6.888;2023-04-25T08:11:34;16.63;;;3.90;;
5245;SDS011;54412;51.206;6.888;2023-04-25T08:14:00;28.80;;;4.57;;
5245;SDS011;54412;51.206;6.888;2023-04-25T08:16:26;17.03;;;4.37;;
5245;SDS011;54412;51.206;6.888;2023-04-25T08:18:53;15.00;;;3.67;;
5245;SDS011;54412;51.206;6.888;2023-04-25T08:21:19;10.40;;;3.30;;
5245;SDS011;54412;51.206;6.888;2023-04-25T08:23:45;8.67;;;3.33;;
5245;SDS011;54412;51.206;6.888;2023-04-25T08:26:11;10.00;;;3.67;;
5245;SDS011;54412;51.206;6.888;2023-04-25T08:28:36;12.10;;;3.10;;
5245;SDS011;54412;51.206;6.888;2023-04-25T08:31:02;9.20;;;3.13;;
5245;SDS011;54412;51.206;6.888;2023-04-25T08:33:29;17.63;;;3.47;;
5245;SDS011;54412;51.206;6.888;2023-04-25T08:35:55;12.90;;;2.97;;
5245;SDS011;54412;51.206;6.888;2023-04-25T08:38:21;12.67;;;3.77;;
5245;SDS011;54412;51.206;6.888;2023-04-25T08:40:48;11.57;;;2.70;;
5245;SDS011;54412;51.206;6.888;2023-04-25T08:43:19;6.60;;;3.33;;
5245;SDS011;54412;51.206;6.888;2023-04-25T08:45:45;10.73;;;3.43;;
5245;SDS011;54412;51.206;6.888;2023-04-25T08:48:12;12.53;;;3.60;;
5245;SDS011;54412;51.206;6.888;2023-04-25T08:50:51;8.27;;;3.10;;
5245;SDS011;54412;51.206;6.888;2023-04-25T08:53:25;9.53;;;2.97;;
5245;SDS011;54412;51.206;6.888;2023-04-25T08:55:56;11.47;;;3.17;;
5245;SDS011;54412;51.206;6.888;2023-04-25T08:58:24;5.40;;;2.43;;
5245;SDS011;54412;51.206;6.888;2023-04-25T09:00:51;18.70;;;4.43;;
5245;SDS011;54412;51.206;6.888;2023-04-25T09:03:17;6.03;;;3.13;;
5245;SDS011;54412;51.206;6.888;2023-04-25T09:05:44;9.40;;;3.60;;
5245;SDS011;54412;51.206;6.888;2023-04-25T09:08:10;8.93;;;3.20;;
5245;SDS011;54412;51.206;6.888;2023-04-25T09:10:36;12.50;;;3.60;;
5245;SDS011;54412;51.206;6.888;2023-04-25T09:13:03;8.73;;;2.73;;
5245;SDS011;54412;51.206;6.888;2023-04-25T09:15:51;11.33;;;2.90;;
5245;SDS011;54412;51.206;6.888;2023-04-25T09:20:55;8.40;;;3.23;;
5245;SDS011;54412;51.206;6.888;2023-04-25T09:23:30;10.70;;;3.23;;
5245;SDS011;54412;51.206;6.888;2023-04-25T09:26:03;10.53;;;2.60;;
5245;SDS011;54412;51.206;6.888;2023-04-25T09:28:32;5.23;;;2.70;;
5245;SDS011;54412;51.206;6.888;2023-04-25T09:31:00;5.47;;;2.40;;
5245;SDS011;54412;51.206;6.888;2023-04-25T09:33:27;12.63;;;3.60;;
5245;SDS011;54412;51.206;6.888;2023-04-25T09:36:01;12.70;;;3.37;;
5245;SDS011;54412;51.206;6.888;2023-04-25T09:38:30;10.37;;;2.90;;
5245;SDS011;54412;51.206;6.888;2023-04-25T09:40:57;6.80;;;2.97;;
5245;SDS011;54412;51.206;6.888;2023-04-25T09:43:24;12.97;;;3.80;;
5245;SDS011;54412;51.206;6.888;2023-04-25T09:45:53;4.60;;;2.30;;
5245;SDS011;54412;51.206;6.888;2023-04-25T09:48:22;9.97;;;3.20;;
5245;SDS011;54412;51.206;6.888;2023-04-25T09:51:03;6.23;;;2.53;;
5245;SDS011;54412;51.206;6.888;2023-04-25T09:53:39;6.87;;;2.60;;
5245;SDS011;54412;51.206;6.888;2023-04-25T09:56:15;7.20;;;2.60;;
5245;SDS011;54412;51.206;6.888;2023-04-25T09:58:41;9.13;;;3.00;;
5245;SDS011;54412;51.206;6.888;2023-04-25T10:01:08;5.87;;;2.20;;
5245;SDS011;54412;51.206;6.888;2023-04-25T10:03:36;5.17;;;2.23;;
5245;SDS011;54412;51.206;6.888;2023-04-25T10:06:08;3.10;;;1.77;;
5245;SDS011;54412;51.206;6.888;2023-04-25T10:08:39;3.83;;;1.93;;
5245;SDS011;54412;51.206;6.888;2023-04-25T10:11:07;8.73;;;2.27;;
5245;SDS011;54412;51.206;6.888;2023-04-25T10:13:34;6.47;;;2.57;;
5245;SDS011;54412;51.206;6.888;2023-04-25T10:16:01;12.23;;;3.10;;
5245;SDS011;54412;51.206;6.888;2023-04-25T10:18:30;6.70;;;2.93;;
5245;SDS011;54412;51.206;6.888;2023-04-25T10:20:58;6.63;;;2.43;;
5245;SDS011;54412;51.206;6.888;2023-04-25T10:23:27;8.20;;;2.63;;
5245;SDS011;54412;51.206;6.888;2023-04-25T10:25:55;3.77;;;1.60;;
5245;SDS011;54412;51.206;6.888;2023-04-25T10:28:23;10.00;;;2.83;;
5245;SDS011;54412;51.206;6.888;2023-04-25T10:31:06;5.67;;;2.07;;
5245;SDS011;54412;51.206;6.888;2023-04-25T10:33:37;7.60;;;2.10;;
5245;SDS011;54412;51.206;6.888;2023-04-25T10:36:08;9.57;;;2.67;;
5245;SDS011;54412;51.206;6.888;2023-04-25T10:38:43;8.03;;;2.33;;
5245;SDS011;54412;51.206;6.888;2023-04-25T10:41:10;8.90;;;1.83;;
5245;SDS011;54412;51.206;6.888;2023-04-25T10:43:42;7.90;;;2.00;;
5245;SDS011;54412;51.206;6.888;2023-04-25T10:46:12;4.27;;;1.80;;
5245;SDS011;54412;51.206;6.888;2023-04-25T10:48:51;7.10;;;2.10;;
5245;SDS011;54412;51.206;6.888;2023-04-25T10:51:22;5.60;;;2.30;;
5245;SDS011;54412;51.206;6.888;2023-04-25T10:54:00;8.57;;;2.10;;
5245;SDS011;54412;51.206;6.888;2023-04-25T11:01:40;6.97;;;2.10;;
5245;SDS011;54412;51.206;6.888;2023-04-25T11:04:22;10.20;;;4.73;;
5245;SDS011;54412;51.206;6.888;2023-04-25T11:10:07;5.00;;;1.70;;
5245;SDS011;54412;51.206;6.888;2023-04-25T11:12:33;4.60;;;1.97;;
5245;SDS011;54412;51.206;6.888;2023-04-25T11:14:59;9.50;;;2.03;;
5245;SDS011;54412;51.206;6.888;2023-04-25T11:17:27;4.00;;;1.90;;
5245;SDS011;54412;51.206;6.888;2023-04-25T11:19:53;5.67;;;2.00;;
5245;SDS011;54412;51.206;6.888;2023-04-25T11:22:19;5.70;;;1.80;;
5245;SDS011;54412;51.206;6.888;2023-04-25T11:24:47;2.93;;;1.73;;
5245;SDS011;54412;51.206;6.888;2023-04-25T11:27:12;5.30;;;1.67;;
5245;SDS011;54412;51.206;6.888;2023-04-25T11:29:38;4.33;;;1.50;;
5245;SDS011;54412;51.206;6.888;2023-04-25T11:32:04;4.50;;;1.57;;
5245;SDS011;54412;51.206;6.888;2023-04-25T11:34:30;2.67;;;1.00;;
5245;SDS011;54412;51.206;6.888;2023-04-25T11:36:58;4.97;;;1.40;;
5245;SDS011;54412;51.206;6.888;2023-04-25T11:39:25;6.17;;;1.57;;
5245;SDS011;54412;51.206;6.888;2023-04-25T11:41:52;2.90;;;1.40;;
5245;SDS011;54412;51.206;6.888;2023-04-25T11:44:19;8.53;;;1.80;;
5245;SDS011;54412;51.206;6.888;2023-04-25T11:46:46;1.90;;;1.20;;
5245;SDS011;54412;51.206;6.888;2023-04-25T11:49:14;4.63;;;1.47;;
5245;SDS011;54412;51.206;6.888;2023-04-25T11:51:41;7.97;;;2.00;;
5245;SDS011;54412;51.206;6.888;2023-04-25T11:54:08;11.10;;;5.80;;
5245;SDS011;54412;51.206;6.888;2023-04-25T11:56:35;9.00;;;2.47;;
5245;SDS011;54412;51.206;6.888;2023-04-25T11:59:01;6.77;;;2.70;;
5245;SDS011;54412;51.206;6.888;2023-04-25T12:01:30;8.20;;;2.20;;
5245;SDS011;54412;51.206;6.888;2023-04-25T12:03:57;12.57;;;2.20;;
5245;SDS011;54412;51.206;6.888;2023-04-25T12:06:36;5.83;;;1.97;;
5245;SDS011;54412;51.206;6.888;2023-04-25T12:09:06;5.80;;;1.53;;
5245;SDS011;54412;51.206;6.888;2023-04-25T12:11:42;4.67;;;2.13;;
5245;SDS011;54412;51.206;6.888;2023-04-25T12:14:23;6.43;;;2.17;;
5245;SDS011;54412;51.206;6.888;2023-04-25T12:16:52;10.63;;;2.30;;
5245;SDS011;54412;51.206;6.888;2023-04-25T12:19:20;4.20;;;1.93;;
5245;SDS011;54412;51.206;6.888;2023-04-25T12:21:47;8.00;;;2.50;;
5245;SDS011;54412;51.206;6.888;2023-04-25T12:24:17;7.07;;;2.60;;
5245;SDS011;54412;51.206;6.888;2023-04-25T12:27:02;9.40;;;1.80;;
5245;SDS011;54412;51.206;6.888;2023-04-25T12:29:33;4.77;;;2.07;;
5245;SDS011;54412;51.206;6.888;2023-04-25T12:32:00;7.87;;;2.47;;
5245;SDS011;54412;51.206;6.888;2023-04-25T12:34:28;9.30;;;2.73;;
5245;SDS011;54412;51.206;6.888;2023-04-25T12:36:54;5.67;;;2.90;;
5245;SDS011;54412;51.206;6.888;2023-04-25T12:39:20;14.43;;;3.13;;
5245;SDS011;54412;51.206;6.888;2023-04-25T12:41:48;7.53;;;3.83;;
5245;SDS011;54412;51.206;6.888;2023-04-25T12:44:19;8.77;;;2.90;;
5245;SDS011;54412;51.206;6.888;2023-04-25T12:46:45;8.40;;;2.97;;
5245;SDS011;54412;51.206;6.888;2023-04-25T12:49:12;12.33;;;3.73;;
5245;SDS011;54412;51.206;6.888;2023-04-25T12:51:38;10.57;;;2.57;;
5245;SDS011;54412;51.206;6.888;2023-04-25T12:54:05;9.93;;;3.30;;
5245;SDS011;54412;51.206;6.888;2023-04-25T12:56:32;7.20;;;3.53;;
5245;SDS011;54412;51.206;6.888;2023-04-25T12:58:58;2.40;;;2.20;;
5245;SDS011;54412;51.206;6.888;2023-04-25T13:01:24;5.57;;;2.93;;
5245;SDS011;54412;51.206;6.888;2023-04-25T13:03:51;6.20;;;2.80;;
5245;SDS011;54412;51.206;6.888;2023-04-25T13:06:18;3.67;;;2.40;;
5245;SDS011;54412;51.206;6.888;2023-04-25T13:08:44;5.77;;;2.40;;
5245;SDS011;54412;51.206;6.888;2023-04-25T13:11:10;5.27;;;2.33;;
5245;SDS011;54412;51.206;6.888;2023-04-25T13:13:36;5.10;;;2.30;;
5245;SDS011;54412;51.206;6.888;2023-04-25T13:16:05;7.13;;;2.33;;
5245;SDS011;54412;51.206;6.888;2023-04-25T13:18:32;2.83;;;2.00;;
5245;SDS011;54412;51.206;6.888;2023-04-25T13:20:58;6.53;;;2.43;;
5245;SDS011;54412;51.206;6.888;2023-04-25T13:23:25;2.93;;;2.23;;
5245;SDS011;54412;51.206;6.888;2023-04-25T13:25:53;2.43;;;1.63;;
5245;SDS011;54412;51.206;6.888;2023-04-25T13:28:20;8.03;;;2.10;;
5245;SDS011;54412;51.206;6.888;2023-04-25T13:30:46;11.20;;;2.47;;
5245;SDS011;54412;51.206;6.888;2023-04-25T13:33:12;7.30;;;2.30;;
5245;SDS011;54412;51.206;6.888;2023-04-25T13:35:40;8.23;;;2.20;;
5245;SDS011;54412;51.206;6.888;2023-04-25T13:38:07;5.93;;;2.40;;
5245;SDS011;54412;51.206;6.888;2023-04-25T13:40:33;5.00;;;1.70;;
5245;SDS011;54412;51.206;6.888;2023-04-25T13:43:00;4.27;;;1.53;;
5245;SDS011;54412;51.206;6.888;2023-04-25T13:45:26;5.33;;;1.80;;
5245;SDS011;54412;51.206;6.888;2023-04-25T13:47:52;3.97;;;1.73;;
5245;SDS011;54412;51.206;6.888;2023-04-25T13:50:18;5.07;;;1.87;;
5245;SDS011;54412;51.206;6.888;2023-04-25T13:52:44;1.83;;;1.60;;
5245;SDS011;54412;51.206;6.888;2023-04-25T13:55:10;3.03;;;1.60;;
5245;SDS011;54412;51.206;6.888;2023-04-25T13:57:36;8.97;;;2.23;;
5245;SDS011;54412;51.206;6.888;2023-04-25T14:00:03;8.30;;;1.63;;
5245;SDS011;54412;51.206;6.888;2023-04-25T14:02:34;3.57;;;1.50;;
5245;SDS011;54412;51.206;6.888;2023-04-25T14:05:00;3.40;;;1.60;;
5245;SDS011;54412;51.206;6.888;2023-04-25T14:07:28;7.50;;;1.67;;
5245;SDS011;54412;51.206;6.888;2023-04-25T14:09:53;6.30;;;1.60;;
5245;SDS011;54412;51.206;6.888;2023-04-25T14:12:19;4.97;;;1.90;;
5245;SDS011;54412;51.206;6.888;2023-04-25T14:14:45;6.37;;;1.60;;
5245;SDS011;54412;51.206;6.888;2023-04-25T14:17:10;3.97;;;1.60;;
5245;SDS011;54412;51.206;6.888;2023-04-25T14:19:36;3.10;;;1.40;;
5245;SDS011;54412;51.206;6.888;2023-04-25T14:22:03;3.13;;;1.67;;
5245;SDS011;54412;51.206;6.888;2023-04-25T14:24:29;6.20;;;1.60;;
5245;SDS011;54412;51.206;6.888;2023-04-25T14:26:55;3.37;;;1.70;;
5245;SDS011;54412;51.206;6.888;2023-04-25T14:29:21;20.77;;;2.20;;
5245;SDS011;54412;51.206;6.888;2023-04-25T14:31:46;6.60;;;1.67;;
5245;SDS011;54412;51.206;6.888;2023-04-25T14:34:12;5.47;;;1.67;;
5245;SDS011;54412;51.206;6.888;2023-04-25T14:36:38;11.10;;;2.20;;
5245;SDS011;54412;51.206;6.888;2023-04-25T14:39:04;4.87;;;2.00;;
5245;SDS011;54412;51.206;6.888;2023-04-25T14:41:32;5.23;;;1.90;;
5245;SDS011;54412;51.206;6.888;2023-04-25T14:43:57;3.80;;;1.77;;
5245;SDS011;54412;51.206;6.888;2023-04-25T14:46:23;11.23;;;3.17;;
5245;SDS011;54412;51.206;6.888;2023-04-25T14:48:49;8.80;;;2.37;;
5245;SDS011;54412;51.206;6.888;2023-04-25T14:51:15;5.40;;;1.80;;
5245;SDS011;54412;51.206;6.888;2023-04-25T14:53:41;11.93;;;2.03;;
5245;SDS011;54412;51.206;6.888;2023-04-25T14:56:07;4.63;;;1.93;;
5245;SDS011;54412;51.206;6.888;2023-04-25T14:58:33;7.13;;;2.23;;
5245;SDS011;54412;51.206;6.888;2023-04-25T15:00:59;5.97;;;1.80;;
5245;SDS011;54412;51.206;6.888;2023-04-25T15:03:25;5.03;;;2.17;;